createdAt,value
2019-03-31T00:01:35.633Z,129.85
2019-03-31T00:04:08.771Z,128.23
2019-03-31T00:06:39.190Z,132.07
2019-03-31T00:09:11.979Z,133.72
2019-03-31T00:11:45.520Z,133.87
2019-03-31T00:14:17.942Z,130.50
2019-03-31T00:16:52.196Z,128.80
2019-03-31T00:19:22.176Z,136.68
2019-03-31T00:21:52.496Z,128.05
2019-03-31T00:24:24.970Z,132.47
2019-03-31T00:26:56.421Z,210.85
2019-03-31T00:29:28.619Z,140.28
2019-03-31T00:31:59.732Z,143.68
2019-03-31T00:34:32.284Z,143.22
2019-03-31T00:37:02.929Z,142.82
2019-03-31T00:39:36.824Z,154.40
2019-03-31T00:42:07.264Z,161.47
2019-03-31T00:44:38.915Z,165.57
2019-03-31T00:47:09.342Z,169.95
2019-03-31T00:49:42.512Z,164.67
2019-03-31T00:52:13.992Z,161.37
2019-03-31T00:54:45.092Z,175.53
2019-03-31T00:57:17.396Z,155.22
2019-03-31T00:59:50.275Z,149.55
2019-03-31T01:02:23.052Z,146.00
2019-03-31T01:04:54.094Z,152.62
2019-03-31T01:07:26.773Z,137.43
2019-03-31T01:09:57.690Z,155.03
2019-03-31T01:12:28.344Z,142.00
2019-03-31T01:14:59.481Z,140.30
2019-03-31T01:17:30.728Z,142.43
2019-03-31T01:20:01.849Z,140.95
2019-03-31T01:22:32.807Z,131.40
2019-03-31T01:25:09.169Z,137.03
2019-03-31T01:27:41.983Z,136.35
2019-03-31T01:30:13.415Z,131.72
2019-03-31T01:32:44.341Z,124.15
2019-03-31T01:35:17.324Z,139.32
2019-03-31T01:37:48.567Z,134.50
2019-03-31T01:40:19.303Z,129.40
2019-03-31T01:42:51.090Z,131.18
2019-03-31T01:45:22.710Z,137.18
2019-03-31T01:47:53.300Z,145.22
2019-03-31T01:50:25.097Z,149.93
2019-03-31T01:52:55.621Z,156.87
2019-03-31T01:55:27.082Z,140.52
2019-03-31T01:57:58.707Z,138.57
2019-03-31T02:03:11.866Z,134.97
2019-03-31T02:05:43.115Z,135.45
2019-03-31T02:08:13.641Z,133.55
2019-03-31T02:10:44.367Z,137.12
2019-03-31T02:13:16.008Z,123.42
2019-03-31T02:15:47.510Z,127.67
2019-03-31T02:18:19.129Z,129.07
2019-03-31T02:20:50.659Z,130.75
2019-03-31T02:23:22.328Z,125.90
2019-03-31T02:25:55.614Z,142.70
2019-03-31T02:28:27.271Z,144.28
2019-03-31T02:30:58.816Z,162.65
2019-03-31T02:33:30.180Z,156.95
2019-03-31T02:36:02.144Z,169.80
2019-03-31T02:38:33.371Z,167.75
2019-03-31T02:41:05.448Z,161.03
2019-03-31T02:43:37.110Z,157.43
2019-03-31T02:46:07.568Z,146.28
2019-03-31T02:48:38.368Z,158.47
2019-03-31T02:51:10.024Z,159.85
2019-03-31T02:53:41.444Z,157.32
2019-03-31T02:56:11.890Z,159.27
2019-03-31T02:58:45.087Z,161.80
2019-03-31T03:01:16.943Z,149.60
2019-03-31T03:03:47.985Z,165.73
2019-03-31T03:06:24.042Z,153.38
2019-03-31T03:08:57.759Z,148.17
2019-03-31T03:11:27.956Z,157.93
2019-03-31T03:13:59.552Z,136.50
2019-03-31T03:16:30.936Z,146.40
2019-03-31T03:19:02.724Z,144.30
2019-03-31T03:21:34.638Z,133.40
2019-03-31T03:24:05.509Z,125.70
2019-03-31T03:26:36.250Z,132.22
2019-03-31T03:29:07.537Z,132.67
2019-03-31T03:31:38.847Z,131.78
2019-03-31T03:34:09.580Z,128.18
2019-03-31T03:36:43.314Z,129.82
2019-03-31T03:39:13.830Z,127.00
2019-03-31T03:41:44.738Z,137.28
2019-03-31T03:44:16.779Z,144.32
2019-03-31T03:46:48.148Z,151.02
2019-03-31T03:49:20.419Z,149.55
2019-03-31T03:51:51.762Z,150.00
2019-03-31T03:54:23.312Z,151.20
2019-03-31T03:56:53.567Z,153.30
2019-03-31T03:59:24.493Z,159.07
2019-03-31T04:01:57.356Z,151.82
2019-03-31T04:04:28.185Z,146.60
2019-03-31T04:06:59.738Z,161.68
2019-03-31T04:09:30.674Z,158.70
2019-03-31T04:12:02.022Z,153.80
2019-03-31T04:14:33.765Z,157.95
2019-03-31T04:17:05.395Z,166.57
2019-03-31T04:19:35.712Z,157.27
2019-03-31T04:22:06.506Z,153.60
2019-03-31T04:24:37.215Z,158.42
2019-03-31T04:27:07.953Z,160.28
2019-03-31T04:29:38.603Z,168.00
2019-03-31T04:32:09.277Z,166.00
2019-03-31T04:34:42.505Z,165.82
2019-03-31T04:37:13.034Z,161.75
2019-03-31T04:39:44.145Z,161.82
2019-03-31T04:42:15.319Z,151.35
2019-03-31T04:44:46.803Z,155.82
2019-03-31T04:47:17.243Z,152.07
2019-03-31T04:49:47.926Z,161.92
2019-03-31T04:52:19.277Z,168.60
2019-03-31T04:54:51.232Z,161.88
2019-03-31T04:57:21.759Z,150.00
2019-03-31T04:59:52.732Z,156.15
2019-03-31T05:02:26.909Z,149.15
2019-03-31T05:04:55.391Z,149.68
2019-03-31T05:07:26.119Z,136.45
2019-03-31T05:09:56.546Z,143.13
2019-03-31T05:12:27.279Z,139.22
2019-03-31T05:14:58.011Z,141.25
2019-03-31T05:17:28.747Z,146.22
2019-03-31T05:19:59.274Z,145.20
2019-03-31T05:22:30.515Z,148.87
2019-03-31T05:25:04.910Z,145.87
2019-03-31T05:27:38.122Z,139.12
2019-03-31T05:30:09.640Z,141.37
2019-03-31T05:32:43.608Z,144.90
2019-03-31T05:35:14.520Z,137.20
2019-03-31T05:37:51.345Z,146.62
2019-03-31T05:40:19.362Z,138.50
2019-03-31T05:42:52.617Z,145.80
2019-03-31T05:45:24.519Z,138.77
2019-03-31T05:47:54.831Z,130.93
2019-03-31T05:50:26.489Z,145.97
2019-03-31T05:52:57.431Z,143.68
2019-03-31T05:55:28.299Z,130.65
2019-03-31T05:58:00.842Z,129.25
2019-03-31T06:00:34.240Z,135.55
2019-03-31T06:03:05.064Z,124.22
2019-03-31T06:05:35.804Z,130.12
2019-03-31T06:08:06.438Z,139.75
2019-03-31T06:10:37.167Z,148.17
2019-03-31T06:13:10.080Z,141.62
2019-03-31T06:15:44.181Z,135.25
2019-03-31T06:18:15.306Z,125.45
2019-03-31T06:20:46.353Z,120.80
2019-03-31T06:23:16.462Z,121.85
2019-03-31T06:25:49.139Z,124.85
2019-03-31T06:28:22.662Z,129.97
2019-03-31T06:30:53.673Z,130.43
2019-03-31T06:33:26.641Z,130.55
2019-03-31T06:35:58.422Z,122.58
2019-03-31T06:38:29.052Z,119.45
2019-03-31T06:41:01.625Z,107.05
2019-03-31T06:43:35.629Z,118.82
2019-03-31T06:46:08.409Z,66.40
2019-03-31T06:48:40.665Z,62.48
2019-03-31T06:51:12.640Z,56.83
2019-03-31T06:53:49.208Z,61.35
2019-03-31T06:58:49.962Z,59.23
2019-03-31T07:01:22.122Z,65.83
2019-03-31T07:03:52.918Z,56.55
2019-03-31T07:06:25.556Z,54.67
2019-03-31T07:08:56.602Z,61.37
2019-03-31T07:11:27.435Z,60.45
2019-03-31T07:14:00.202Z,64.03
2019-03-31T07:16:30.536Z,60.73
2019-03-31T07:19:02.759Z,61.73
2019-03-31T07:21:33.311Z,63.00
2019-03-31T07:24:03.985Z,58.73
2019-03-31T07:26:36.414Z,54.83
2019-03-31T07:29:07.246Z,55.35
2019-03-31T07:31:39.179Z,54.15
2019-03-31T07:34:11.026Z,55.10
2019-03-31T07:36:43.332Z,49.13
2019-03-31T07:39:14.109Z,58.95
2019-03-31T07:41:46.885Z,54.48
2019-03-31T07:44:17.787Z,58.20
2019-03-31T07:46:50.183Z,58.17
2019-03-31T07:51:52.954Z,51.23
2019-03-31T07:54:24.404Z,60.03
2019-03-31T07:56:54.935Z,52.20
2019-03-31T07:59:26.256Z,46.60
2019-03-31T08:01:57.217Z,40.80
2019-03-31T08:04:28.200Z,49.88
2019-03-31T08:06:59.003Z,46.92
2019-03-31T08:09:31.249Z,64.85
2019-03-31T08:12:03.016Z,48.48
2019-03-31T08:14:33.636Z,45.33
2019-03-31T08:17:04.247Z,53.60
2019-03-31T08:19:36.194Z,51.77
2019-03-31T08:22:06.857Z,43.17
2019-03-31T08:24:43.549Z,46.05
2019-03-31T08:27:15.184Z,44.50
2019-03-31T08:29:51.992Z,43.28
2019-03-31T08:32:18.597Z,39.40
2019-03-31T08:34:49.329Z,43.60
2019-03-31T08:37:20.914Z,41.33
2019-03-31T08:39:51.409Z,51.70
2019-03-31T08:42:22.540Z,50.78
2019-03-31T08:44:54.913Z,45.12
2019-03-31T08:47:26.986Z,48.85
2019-03-31T08:50:01.577Z,51.63
2019-03-31T08:52:31.713Z,41.18
2019-03-31T08:55:02.356Z,38.73
2019-03-31T08:57:33.827Z,38.38
2019-03-31T09:00:07.790Z,50.78
2019-03-31T09:02:38.343Z,47.45
2019-03-31T09:05:10.303Z,44.67
2019-03-31T09:07:42.238Z,34.60
2019-03-31T09:10:12.593Z,41.90
2019-03-31T09:12:44.017Z,48.13
2019-03-31T09:15:15.861Z,55.83
2019-03-31T09:17:47.136Z,46.58
2019-03-31T09:20:18.186Z,30.85
2019-03-31T09:22:50.755Z,39.45
2019-03-31T09:25:21.921Z,34.48
2019-03-31T09:27:53.141Z,41.05
2019-03-31T09:30:23.874Z,40.38
2019-03-31T09:32:54.614Z,34.78
2019-03-31T09:35:26.710Z,39.05
2019-03-31T09:37:56.980Z,37.50
2019-03-31T09:40:27.902Z,41.58
2019-03-31T09:42:58.665Z,38.80
2019-03-31T09:45:29.393Z,35.45
2019-03-31T09:48:01.771Z,49.75
2019-03-31T09:50:33.318Z,33.18
2019-03-31T09:53:04.175Z,41.95
2019-03-31T09:55:34.893Z,37.78
2019-03-31T09:58:05.627Z,34.67
2019-03-31T10:00:49.893Z,27.10
2019-03-31T10:03:20.988Z,27.87
2019-03-31T10:05:51.339Z,32.03
2019-03-31T10:08:24.029Z,32.65
2019-03-31T10:10:56.660Z,38.45
2019-03-31T10:13:27.868Z,33.45
2019-03-31T10:16:02.876Z,33.83
2019-03-31T10:18:33.597Z,37.30
2019-03-31T10:21:04.739Z,29.00
2019-03-31T10:23:35.372Z,32.48
2019-03-31T10:26:07.629Z,30.48
2019-03-31T10:28:38.376Z,28.92
2019-03-31T10:31:11.355Z,30.70
2019-03-31T10:33:44.033Z,28.57
2019-03-31T10:36:15.178Z,24.67
2019-03-31T10:38:47.759Z,28.35
2019-03-31T10:41:18.516Z,27.60
2019-03-31T10:43:51.318Z,26.37
2019-03-31T10:46:21.929Z,29.72
2019-03-31T10:48:53.272Z,34.78
2019-03-31T10:51:25.926Z,32.13
2019-03-31T10:53:56.651Z,30.88
2019-03-31T10:56:28.801Z,34.67
2019-03-31T10:58:59.445Z,33.50
2019-03-31T11:01:30.080Z,33.20
2019-03-31T11:04:02.550Z,38.02
2019-03-31T11:06:32.872Z,40.67
2019-03-31T11:09:05.154Z,35.17
2019-03-31T11:11:37.003Z,37.50
2019-03-31T11:14:07.735Z,33.53
2019-03-31T11:16:38.570Z,33.85
2019-03-31T11:19:11.347Z,38.35
2019-03-31T11:21:45.560Z,33.25
2019-03-31T11:24:16.297Z,40.73
2019-03-31T11:26:47.651Z,34.50
2019-03-31T11:29:18.886Z,40.33
2019-03-31T11:31:49.911Z,40.03
2019-03-31T11:34:22.768Z,41.85
2019-03-31T11:36:56.309Z,41.37
2019-03-31T11:39:27.040Z,42.23
2019-03-31T11:41:58.903Z,43.48
2019-03-31T11:44:29.450Z,48.80
2019-03-31T11:47:00.279Z,52.53
2019-03-31T11:49:32.454Z,45.60
2019-03-31T11:52:02.808Z,42.80
2019-03-31T11:54:35.260Z,45.58
2019-03-31T11:57:05.754Z,39.75
2019-03-31T11:59:37.819Z,39.58
2019-03-31T12:02:08.547Z,37.93
2019-03-31T12:04:40.719Z,45.92
2019-03-31T12:07:12.143Z,42.08
2019-03-31T12:09:42.668Z,37.25
2019-03-31T12:12:13.997Z,35.75
2019-03-31T12:14:59.529Z,55.78
2019-03-31T12:17:18.573Z,40.00
2019-03-31T12:19:52.177Z,31.97
2019-03-31T12:22:26.777Z,33.00
2019-03-31T12:24:58.144Z,27.17
2019-03-31T12:27:30.314Z,28.62
2019-03-31T12:30:01.455Z,26.90
2019-03-31T12:32:34.031Z,22.48
2019-03-31T12:35:09.338Z,21.10
2019-03-31T12:37:43.045Z,20.12
2019-03-31T12:40:15.912Z,20.88
2019-03-31T12:42:49.644Z,18.00
2019-03-31T12:45:20.086Z,17.50
2019-03-31T12:47:51.056Z,19.07
2019-03-31T12:50:21.752Z,22.55
2019-03-31T12:52:52.412Z,25.08
2019-03-31T12:55:25.051Z,24.43
2019-03-31T12:57:57.031Z,20.37
2019-03-31T13:00:29.474Z,22.30
2019-03-31T13:03:02.590Z,29.18
2019-03-31T13:05:33.316Z,33.50
2019-03-31T13:08:04.053Z,20.55
2019-03-31T13:10:35.213Z,17.42
2019-03-31T13:13:05.956Z,21.70
2019-03-31T13:15:37.450Z,18.17
2019-03-31T13:18:08.005Z,23.18
2019-03-31T13:20:38.737Z,22.62
2019-03-31T13:23:09.470Z,21.00
2019-03-31T13:25:40.206Z,25.40
2019-03-31T13:28:12.985Z,22.48
2019-03-31T13:30:44.635Z,38.92
2019-03-31T13:33:16.402Z,28.80
2019-03-31T13:35:48.156Z,46.75
2019-03-31T13:38:19.810Z,36.40
2019-03-31T13:40:50.720Z,30.37
2019-03-31T13:43:21.478Z,24.82
2019-03-31T13:45:52.824Z,31.82
2019-03-31T13:48:23.966Z,34.80
2019-03-31T13:50:54.391Z,29.98
2019-03-31T13:53:25.943Z,42.67
2019-03-31T13:55:57.711Z,33.85
2019-03-31T13:58:28.621Z,30.85
2019-03-31T14:01:02.349Z,30.08
2019-03-31T14:03:33.077Z,36.80
2019-03-31T14:06:05.069Z,40.50
2019-03-31T14:08:36.581Z,35.73
2019-03-31T14:11:08.317Z,31.77
2019-03-31T14:13:39.895Z,49.77
2019-03-31T14:16:11.798Z,44.00
2019-03-31T14:18:43.505Z,35.65
2019-03-31T14:21:16.595Z,28.38
2019-03-31T14:23:47.941Z,50.80
2019-03-31T14:26:19.902Z,29.75
2019-03-31T14:28:50.429Z,42.40
2019-03-31T14:31:21.064Z,33.28
2019-03-31T14:33:51.798Z,30.35
2019-03-31T14:36:24.067Z,55.73
2019-03-31T14:38:54.901Z,42.95
2019-03-31T14:41:28.199Z,24.37
2019-03-31T14:43:59.232Z,21.02
2019-03-31T14:46:32.962Z,21.57
2019-03-31T14:49:05.412Z,15.20
2019-03-31T14:51:36.755Z,23.00
2019-03-31T14:54:07.489Z,18.17
2019-03-31T14:56:39.246Z,17.30
2019-03-31T14:59:10.385Z,24.82
2019-03-31T15:01:43.681Z,32.58
2019-03-31T15:04:15.539Z,19.15
2019-03-31T15:06:46.886Z,21.97
2019-03-31T15:09:18.135Z,30.12
2019-03-31T15:11:48.963Z,26.85
2019-03-31T15:14:19.763Z,32.95
2019-03-31T15:16:52.274Z,32.28
2019-03-31T15:19:22.574Z,34.43
2019-03-31T15:21:53.326Z,46.88
2019-03-31T15:24:26.210Z,25.45
2019-03-31T15:26:58.457Z,22.40
2019-03-31T15:29:29.646Z,22.50
2019-03-31T15:32:00.763Z,40.73
2019-03-31T15:34:34.106Z,37.03
2019-03-31T15:37:05.244Z,43.40
2019-03-31T15:39:38.618Z,45.80
2019-03-31T15:42:09.027Z,38.20
2019-03-31T15:44:39.751Z,66.70
2019-03-31T15:47:10.707Z,39.50
2019-03-31T15:49:41.525Z,35.80
2019-03-31T15:52:14.976Z,32.53
2019-03-31T15:54:46.164Z,29.52
2019-03-31T15:57:18.093Z,42.33
2019-03-31T15:59:50.395Z,34.40
2019-03-31T16:02:24.542Z,33.73
2019-03-31T16:04:55.555Z,36.83
2019-03-31T16:07:26.858Z,59.80
2019-03-31T16:09:58.350Z,35.00
2019-03-31T16:12:30.445Z,42.65
2019-03-31T16:15:00.829Z,60.75
2019-03-31T16:17:37.916Z,62.08
2019-03-31T16:20:08.342Z,51.63
2019-03-31T16:22:38.978Z,48.33
2019-03-31T16:25:11.899Z,54.77
2019-03-31T16:27:42.785Z,65.08
2019-03-31T16:30:13.521Z,56.02
2019-03-31T16:32:44.179Z,67.80
2019-03-31T16:35:15.209Z,47.50
2019-03-31T16:37:45.528Z,48.58
2019-03-31T16:40:16.448Z,56.33
2019-03-31T16:42:48.105Z,71.07
2019-03-31T16:45:19.143Z,59.83
2019-03-31T16:47:50.903Z,69.00
2019-03-31T16:50:23.169Z,66.10
2019-03-31T16:52:54.109Z,77.25
2019-03-31T16:55:25.041Z,88.70
2019-03-31T16:57:56.898Z,82.22
2019-03-31T17:00:27.981Z,81.37
2019-03-31T17:02:58.477Z,85.42
2019-03-31T17:05:31.454Z,69.50
2019-03-31T17:08:03.464Z,77.08
2019-03-31T17:10:34.660Z,71.80
2019-03-31T17:13:06.009Z,66.87
2019-03-31T17:15:37.530Z,74.45
2019-03-31T17:18:08.292Z,73.10
2019-03-31T17:20:41.587Z,70.78
2019-03-31T17:23:14.984Z,56.20
2019-03-31T17:25:47.232Z,60.60
2019-03-31T17:28:18.289Z,56.63
2019-03-31T17:30:48.405Z,53.65
2019-03-31T17:33:21.089Z,53.48
2019-03-31T17:35:52.124Z,53.42
2019-03-31T17:38:24.504Z,48.63
2019-03-31T17:40:56.046Z,46.68
2019-03-31T17:43:26.581Z,47.23
2019-03-31T17:46:01.081Z,50.30
2019-03-31T17:48:33.467Z,47.48
2019-03-31T17:51:05.536Z,43.30
2019-03-31T17:53:37.299Z,49.25
2019-03-31T17:56:10.373Z,42.05
2019-03-31T17:58:44.076Z,46.00
2019-03-31T18:01:15.039Z,47.62
2019-03-31T18:03:46.244Z,49.75
2019-03-31T18:06:17.293Z,59.95
2019-03-31T18:08:48.238Z,49.00
2019-03-31T18:11:20.263Z,44.50
2019-03-31T18:13:50.606Z,42.10
2019-03-31T18:16:21.611Z,48.05
2019-03-31T18:18:53.929Z,47.80
2019-03-31T18:21:27.358Z,41.57
2019-03-31T18:23:58.880Z,43.40
2019-03-31T18:26:30.465Z,46.00
2019-03-31T18:29:02.387Z,41.08
2019-03-31T18:31:32.932Z,42.10
2019-03-31T18:34:07.111Z,46.77
2019-03-31T18:36:39.177Z,53.55
2019-03-31T18:39:10.543Z,47.85
2019-03-31T18:41:42.401Z,45.70
2019-03-31T18:44:14.876Z,40.35
2019-03-31T18:46:45.615Z,54.23
2019-03-31T18:49:21.698Z,46.48
2019-03-31T18:51:52.488Z,47.35
2019-03-31T18:54:24.767Z,45.40
2019-03-31T18:57:03.798Z,48.10
2019-03-31T18:59:42.138Z,57.80
2019-03-31T19:02:15.809Z,49.80
2019-03-31T19:04:51.007Z,56.02
2019-03-31T19:07:23.623Z,59.95
2019-03-31T19:09:59.269Z,59.65
2019-03-31T19:12:32.255Z,49.40
2019-03-31T19:15:07.909Z,52.58
2019-03-31T19:17:55.458Z,80.60
2019-03-31T19:20:31.086Z,52.38
2019-03-31T19:23:21.673Z,47.73
2019-03-31T19:25:55.477Z,66.42
2019-03-31T19:28:27.984Z,49.20
2019-03-31T19:31:06.818Z,48.63
2019-03-31T19:33:42.011Z,70.00
2019-03-31T19:36:23.290Z,60.40
2019-03-31T19:39:00.678Z,57.60
2019-03-31T19:41:36.838Z,52.40
2019-03-31T19:44:28.153Z,59.67
2019-03-31T19:47:03.700Z,51.02
2019-03-31T19:49:42.523Z,68.60
2019-03-31T19:52:17.963Z,51.40
2019-03-31T19:55:03.552Z,56.75
2019-03-31T19:57:52.911Z,58.83
2019-03-31T20:00:40.959Z,42.33
2019-03-31T20:03:25.311Z,46.58
2019-03-31T20:08:53.697Z,70.72
2019-03-31T20:11:25.877Z,71.10
2019-03-31T20:14:02.081Z,68.35
2019-03-31T20:16:49.754Z,68.60
2019-03-31T20:19:23.051Z,76.30
2019-03-31T20:24:31.063Z,77.72
2019-03-31T20:27:08.567Z,62.80
2019-03-31T20:29:57.824Z,69.17
2019-03-31T20:32:32.746Z,82.47
2019-03-31T20:35:23.462Z,87.75
2019-03-31T20:38:07.918Z,56.25
2019-03-31T20:40:41.203Z,74.70
2019-03-31T20:43:16.648Z,71.12
2019-03-31T20:45:50.450Z,70.90
2019-03-31T20:48:20.774Z,63.87
2019-03-31T20:50:52.269Z,79.87
2019-03-31T20:53:24.183Z,62.08
2019-03-31T20:55:55.006Z,95.57
2019-03-31T20:58:25.713Z,67.32
2019-03-31T21:00:58.738Z,73.22
2019-03-31T21:03:29.877Z,68.05
2019-03-31T21:06:01.124Z,61.95
2019-03-31T21:08:31.828Z,64.32
2019-03-31T21:11:05.353Z,85.17
2019-03-31T21:13:35.675Z,80.20
2019-03-31T21:16:07.433Z,76.95
2019-03-31T21:18:38.574Z,62.95
2019-03-31T21:21:12.176Z,61.67
2019-03-31T21:23:43.128Z,64.77
2019-03-31T21:26:13.906Z,73.25
2019-03-31T21:28:46.934Z,64.85
2019-03-31T21:31:19.498Z,63.08
2019-03-31T21:33:50.751Z,61.98
2019-03-31T21:36:23.435Z,62.70
2019-03-31T21:38:55.263Z,62.23
2019-03-31T21:41:26.973Z,71.87
2019-03-31T21:43:57.674Z,46.37
2019-03-31T21:46:28.712Z,43.25
2019-03-31T21:49:01.187Z,41.35
2019-03-31T21:51:34.077Z,38.17
2019-03-31T21:54:05.317Z,36.53
2019-03-31T21:56:36.151Z,39.58
2019-03-31T21:59:06.982Z,31.20
2019-03-31T22:01:37.714Z,32.65
2019-03-31T22:04:11.318Z,35.10
2019-03-31T22:06:44.103Z,31.57
2019-03-31T22:09:15.241Z,35.80
2019-03-31T22:11:48.326Z,32.40
2019-03-31T22:14:21.623Z,33.67
2019-03-31T22:16:52.840Z,34.83
2019-03-31T22:19:25.844Z,34.33
2019-03-31T22:21:56.277Z,35.33
2019-03-31T22:24:28.543Z,34.10
2019-03-31T22:26:58.966Z,36.08
2019-03-31T22:29:29.938Z,32.10
2019-03-31T22:32:01.153Z,34.53
2019-03-31T22:34:32.600Z,34.33
2019-03-31T22:37:02.965Z,36.05
2019-03-31T22:39:35.506Z,37.88
2019-03-31T22:42:08.280Z,41.35
2019-03-31T22:44:39.229Z,38.05
2019-03-31T22:47:09.743Z,36.85
2019-03-31T22:49:40.390Z,41.08
2019-03-31T22:52:11.517Z,37.90
2019-03-31T22:54:42.764Z,36.10
2019-03-31T22:57:13.090Z,37.10
2019-03-31T22:59:46.988Z,40.38
2019-03-31T23:02:17.732Z,32.00
2019-03-31T23:04:48.367Z,33.85
2019-03-31T23:07:21.034Z,36.63
2019-03-31T23:09:52.511Z,35.48
2019-03-31T23:12:23.238Z,35.50
2019-03-31T23:14:54.664Z,34.83
2019-03-31T23:17:24.993Z,38.67
2019-03-31T23:19:56.867Z,34.33
2019-03-31T23:22:27.826Z,30.05
2019-03-31T23:24:59.438Z,37.45
2019-03-31T23:27:30.205Z,33.75
2019-03-31T23:30:04.794Z,36.60
2019-03-31T23:32:37.062Z,34.78
2019-03-31T23:35:07.896Z,33.10
2019-03-31T23:37:39.551Z,38.00
2019-03-31T23:40:10.178Z,33.92
2019-03-31T23:42:42.765Z,45.28
2019-03-31T23:45:14.613Z,41.90
2019-03-31T23:47:46.162Z,46.15
2019-03-31T23:50:16.516Z,44.35
2019-03-31T23:52:47.733Z,47.35
2019-03-31T23:55:19.083Z,54.93
2019-03-31T23:57:49.964Z,47.08
